Time;durP1;ratioP1;P1;durP2;ratioP2;P2;SDS_P1;SDS_P2;PMS_P1;PMS_P2;Temp;Humidity;BMP_temperature;BMP_pressure;BME280_temperature;BME280_humidity;BME280_pressure;Samples;Min_cycle;Max_cycle;Signal;HPM_P1;HPM_P2
2021/08/01 00:00:21;;;;;;;14.27;8.97;;;16.70;99.90;;;;;;5148633;27;20202;-74
2021/08/01 00:03:09;;;;;;;14.40;9.10;;;16.70;99.90;;;;;;5154052;27;20204;-73
2021/08/01 00:05:58;;;;;;;15.87;9.87;;;16.60;99.90;;;;;;5154026;27;20673;-73
2021/08/01 00:08:45;;;;;;;18.03;10.37;;;16.60;99.90;;;;;;5151788;27;20654;-73
2021/08/01 00:11:33;;;;;;;17.33;10.67;;;16.50;99.90;;;;;;5153254;27;20279;-74
2021/08/01 00:14:20;;;;;;;18.47;10.37;;;16.50;99.90;;;;;;5153666;27;20205;-73
2021/08/01 00:17:08;;;;;;;16.33;9.53;;;16.50;99.90;;;;;;5153366;27;20189;-74
2021/08/01 00:19:56;;;;;;;16.77;10.50;;;16.50;99.90;;;;;;5146953;27;20201;-73
2021/08/01 00:22:44;;;;;;;14.10;9.77;;;16.50;99.90;;;;;;5133696;27;20196;-74
2021/08/01 00:25:32;;;;;;;20.50;10.70;;;16.40;99.90;;;;;;5152172;27;20354;-74
2021/08/01 00:28:20;;;;;;;19.67;9.30;;;16.40;99.90;;;;;;5138924;27;20209;-73
2021/08/01 00:31:07;;;;;;;18.60;9.20;;;16.40;99.90;;;;;;5134824;27;20566;-73
2021/08/01 00:33:55;;;;;;;22.23;9.67;;;16.40;99.90;;;;;;5132227;27;20208;-73
2021/08/01 00:36:42;;;;;;;16.43;9.43;;;16.40;99.90;;;;;;5131391;27;20195;-73
2021/08/01 00:39:31;;;;;;;14.37;9.30;;;16.30;99.90;;;;;;5132175;27;20228;-73
2021/08/01 00:42:19;;;;;;;15.73;8.97;;;16.30;99.90;;;;;;5132660;27;20342;-73
2021/08/01 00:45:08;;;;;;;17.17;9.37;;;16.30;99.90;;;;;;5131784;28;20269;-74
2021/08/01 00:47:56;;;;;;;19.83;8.90;;;16.30;99.90;;;;;;5132570;27;20596;-73
2021/08/01 00:50:43;;;;;;;16.30;9.30;;;16.30;99.90;;;;;;5131910;27;20203;-73
2021/08/01 00:53:31;;;;;;;15.73;9.00;;;16.30;99.90;;;;;;5131899;28;20726;-73
2021/08/01 00:56:20;;;;;;;16.30;10.27;;;16.30;99.90;;;;;;5136031;27;20196;-73
2021/08/01 00:59:07;;;;;;;15.90;10.07;;;16.30;99.90;;;;;;5133878;27;20230;-73
2021/08/01 01:01:57;;;;;;;19.87;10.97;;;16.30;99.90;;;;;;5147357;27;20198;-73
2021/08/01 01:04:50;;;;;;;20.13;10.70;;;16.30;99.90;;;;;;5157156;27;20198;-74
2021/08/01 01:07:39;;;;;;;17.97;9.60;;;16.30;99.90;;;;;;5147502;27;20577;-73
2021/08/01 01:10:28;;;;;;;19.93;9.33;;;16.20;99.90;;;;;;5135778;27;20646;-73
2021/08/01 01:13:21;;;;;;;14.43;9.37;;;16.20;99.90;;;;;;5135769;27;20200;-73
2021/08/01 01:16:09;;;;;;;17.47;10.47;;;16.20;99.90;;;;;;5149420;27;20666;-73
2021/08/01 01:18:58;;;;;;;18.07;10.13;;;16.30;99.90;;;;;;5157159;27;20285;-73
2021/08/01 01:21:49;;;;;;;15.43;10.73;;;16.20;99.90;;;;;;5136407;27;20198;-73
2021/08/01 01:24:36;;;;;;;18.13;10.97;;;16.20;99.90;;;;;;5136307;27;20634;-73
2021/08/01 01:27:28;;;;;;;18.73;11.13;;;16.20;99.90;;;;;;5154929;27;20251;-73
2021/08/01 01:30:17;;;;;;;17.67;11.03;;;16.30;99.90;;;;;;5154401;27;20202;-73
2021/08/01 01:33:08;;;;;;;15.27;10.27;;;16.20;99.90;;;;;;5155671;27;20202;-73
2021/08/01 01:35:56;;;;;;;16.80;10.57;;;16.20;99.90;;;;;;5150287;27;20234;-73
2021/08/01 01:38:45;;;;;;;17.23;10.00;;;16.10;99.90;;;;;;5156585;27;20204;-73
2021/08/01 01:41:32;;;;;;;22.67;10.27;;;16.10;99.90;;;;;;5153873;27;20209;-73
2021/08/01 01:44:20;;;;;;;15.57;10.10;;;16.10;99.90;;;;;;5153634;27;20250;-73
2021/08/01 01:47:08;;;;;;;16.43;9.80;;;16.10;99.90;;;;;;5140661;27;20217;-73
2021/08/01 01:49:57;;;;;;;15.90;9.77;;;16.10;99.90;;;;;;5147997;27;20199;-73
2021/08/01 01:52:47;;;;;;;17.27;9.20;;;16.10;99.90;;;;;;5155024;27;20262;-73
2021/08/01 01:55:38;;;;;;;15.33;9.73;;;16.10;99.90;;;;;;5142928;27;20201;-73
2021/08/01 01:58:27;;;;;;;14.17;9.20;;;16.10;99.90;;;;;;5139911;27;20566;-73
2021/08/01 02:01:15;;;;;;;19.67;10.17;;;16.10;99.90;;;;;;5141005;27;20196;-73
2021/08/01 02:04:03;;;;;;;22.00;10.47;;;16.10;99.90;;;;;;5141715;27;20203;-73
2021/08/01 02:06:51;;;;;;;17.53;10.00;;;16.00;99.90;;;;;;5147837;27;20243;-73
2021/08/01 02:09:42;;;;;;;17.33;9.83;;;16.00;99.90;;;;;;5144523;27;20202;-73
2021/08/01 02:12:33;;;;;;;15.57;9.43;;;16.00;99.90;;;;;;5154830;27;20195;-73
2021/08/01 02:15:21;;;;;;;16.37;9.40;;;16.00;99.90;;;;;;5142752;27;20209;-73
2021/08/01 02:18:10;;;;;;;17.57;9.10;;;16.10;99.90;;;;;;5133171;28;20190;-73
2021/08/01 02:20:58;;;;;;;15.27;8.90;;;16.10;99.90;;;;;;5133886;27;20205;-74
2021/08/01 02:23:46;;;;;;;17.03;9.77;;;16.00;99.90;;;;;;5133469;28;20199;-73
2021/08/01 02:26:34;;;;;;;14.27;9.30;;;16.10;99.90;;;;;;5146771;27;20747;-73
2021/08/01 02:29:23;;;;;;;15.03;9.47;;;16.20;99.90;;;;;;5137345;27;20260;-73
2021/08/01 02:32:11;;;;;;;17.17;9.53;;;16.20;99.90;;;;;;5134404;27;20679;-73
2021/08/01 02:34:58;;;;;;;17.87;8.80;;;16.20;99.90;;;;;;5133897;28;20243;-73
2021/08/01 02:37:46;;;;;;;14.87;10.23;;;16.10;99.90;;;;;;5133446;27;20924;-73
2021/08/01 02:40:36;;;;;;;17.20;10.47;;;16.10;99.90;;;;;;5138134;27;20194;-73
2021/08/01 02:43:23;;;;;;;17.40;9.57;;;16.20;99.90;;;;;;5139587;27;20254;-73
2021/08/01 02:46:12;;;;;;;15.03;10.20;;;16.20;99.90;;;;;;5152977;27;20226;-73
2021/08/01 02:49:03;;;;;;;19.77;10.20;;;16.20;99.90;;;;;;5132579;28;20237;-73
2021/08/01 02:51:52;;;;;;;16.83;9.47;;;16.20;99.90;;;;;;5132843;28;20191;-73
2021/08/01 02:54:40;;;;;;;16.23;9.90;;;16.10;99.90;;;;;;5132536;28;20236;-73
2021/08/01 02:57:28;;;;;;;14.20;9.13;;;16.10;99.90;;;;;;5088081;27;1240420;-73
2021/08/01 03:00:16;;;;;;;15.43;9.33;;;16.20;99.90;;;;;;5133502;27;20522;-74
2021/08/01 03:03:05;;;;;;;21.47;10.00;;;16.20;99.90;;;;;;5134315;27;20553;-72
2021/08/01 03:05:52;;;;;;;16.33;9.47;;;16.20;99.90;;;;;;5133082;27;20212;-71
2021/08/01 03:09:17;;;;;;;15.63;9.20;;;16.20;99.90;;;;;;5133495;27;20196;-71
2021/08/01 03:12:09;;;;;;;17.13;9.93;;;16.20;99.90;;;;;;5134964;27;20637;-72
2021/08/01 03:14:56;;;;;;;14.97;10.30;;;16.20;99.90;;;;;;5133002;27;20248;-72
2021/08/01 03:17:44;;;;;;;18.67;9.83;;;16.20;99.90;;;;;;5133628;27;20294;-71
2021/08/01 03:20:33;;;;;;;14.50;8.40;;;16.30;99.90;;;;;;5145258;27;20239;-71
2021/08/01 03:23:20;;;;;;;15.90;8.83;;;16.30;99.90;;;;;;5153567;27;20220;-72
2021/08/01 03:26:08;;;;;;;11.93;8.23;;;16.30;99.90;;;;;;5152021;27;20219;-71
2021/08/01 03:28:56;;;;;;;20.67;9.63;;;16.30;99.90;;;;;;5145320;27;20202;-71
2021/08/01 03:31:43;;;;;;;19.60;9.33;;;16.30;99.90;;;;;;5142152;27;20210;-72
2021/08/01 03:34:31;;;;;;;19.37;8.40;;;16.40;99.90;;;;;;5137253;27;20321;-71
2021/08/01 03:37:20;;;;;;;15.97;9.53;;;16.40;99.90;;;;;;5147342;27;20276;-71
2021/08/01 03:40:09;;;;;;;15.30;9.70;;;16.40;99.90;;;;;;5133402;27;20198;-71
2021/08/01 03:42:58;;;;;;;14.03;8.03;;;16.50;99.90;;;;;;5133533;27;20526;-71
2021/08/01 03:45:46;;;;;;;17.00;9.27;;;16.50;99.90;;;;;;5132866;27;20304;-71
2021/08/01 03:48:33;;;;;;;13.80;8.67;;;16.50;99.90;;;;;;5132222;27;20244;-71
2021/08/01 03:51:21;;;;;;;19.50;8.73;;;16.50;99.90;;;;;;5134817;27;20210;-71
2021/08/01 03:54:10;;;;;;;13.70;9.17;;;16.60;99.90;;;;;;5141729;27;20195;-71
2021/08/01 03:56:58;;;;;;;13.27;9.30;;;16.60;99.90;;;;;;5148998;27;20398;-71
2021/08/01 03:59:45;;;;;;;11.77;8.30;;;16.70;99.90;;;;;;5133290;27;20194;-71
2021/08/01 04:02:36;;;;;;;17.13;8.70;;;16.70;99.90;;;;;;5151376;27;20232;-71
2021/08/01 04:05:24;;;;;;;15.93;8.67;;;16.80;99.90;;;;;;5138749;27;20204;-71
2021/08/01 04:08:11;;;;;;;24.73;9.03;;;16.80;99.90;;;;;;5133695;27;20225;-71
2021/08/01 04:11:04;;;;;;;15.23;9.37;;;16.90;99.90;;;;;;5135464;27;20737;-71
2021/08/01 04:13:51;;;;;;;15.03;8.73;;;17.00;99.90;;;;;;5133537;27;20663;-71
2021/08/01 04:16:39;;;;;;;11.53;8.07;;;17.10;99.90;;;;;;5143842;27;20546;-71
2021/08/01 04:19:26;;;;;;;13.70;8.00;;;17.10;99.90;;;;;;5139478;27;20201;-72
2021/08/01 04:22:15;;;;;;;14.90;8.93;;;17.20;99.90;;;;;;5141995;27;20680;-71
2021/08/01 04:25:02;;;;;;;17.07;8.27;;;17.30;99.90;;;;;;5143317;27;20196;-71
2021/08/01 04:27:53;;;;;;;15.67;8.57;;;17.30;99.90;;;;;;5146002;27;20211;-72
2021/08/01 04:30:40;;;;;;;15.50;8.37;;;17.40;99.90;;;;;;5150989;27;20187;-72
2021/08/01 04:33:28;;;;;;;12.97;8.00;;;17.40;99.90;;;;;;5149829;27;20203;-71
2021/08/01 04:36:15;;;;;;;15.50;8.23;;;17.50;99.90;;;;;;5133225;27;20204;-72
2021/08/01 04:39:03;;;;;;;14.73;7.57;;;17.60;99.90;;;;;;5132368;27;20209;-71
2021/08/01 04:41:51;;;;;;;12.23;7.57;;;17.50;99.90;;;;;;5142445;27;20319;-72
2021/08/01 04:44:39;;;;;;;16.40;8.13;;;17.50;99.90;;;;;;5149542;27;20198;-71
2021/08/01 04:47:27;;;;;;;17.07;8.13;;;17.50;99.90;;;;;;5152252;27;20360;-71
2021/08/01 04:50:14;;;;;;;14.60;8.53;;;17.50;99.90;;;;;;5132894;27;20256;-71
2021/08/01 04:53:02;;;;;;;12.07;7.73;;;17.60;99.90;;;;;;5145833;27;20745;-71
2021/08/01 04:55:49;;;;;;;11.87;8.23;;;17.60;99.90;;;;;;5146868;27;20202;-72
2021/08/01 04:58:37;;;;;;;14.80;8.17;;;17.60;99.90;;;;;;5143467;27;20573;-72
2021/08/01 05:01:26;;;;;;;12.00;7.63;;;17.60;99.90;;;;;;5138522;27;20274;-71
2021/08/01 05:04:14;;;;;;;13.20;7.30;;;17.60;99.90;;;;;;5152642;27;20235;-71
2021/08/01 05:07:01;;;;;;;11.63;7.33;;;17.60;99.90;;;;;;5152535;27;20214;-71
2021/08/01 05:09:49;;;;;;;17.80;8.10;;;17.60;99.90;;;;;;5151770;27;20300;-72
2021/08/01 05:12:36;;;;;;;10.43;7.40;;;17.60;99.90;;;;;;5150731;27;20200;-71
2021/08/01 05:15:24;;;;;;;11.07;7.67;;;17.70;99.90;;;;;;5145965;27;20215;-71
2021/08/01 05:18:16;;;;;;;10.67;6.93;;;17.70;99.90;;;;;;5153181;27;20623;-71
2021/08/01 05:21:03;;;;;;;12.63;7.83;;;17.70;99.90;;;;;;5131476;28;20676;-71
2021/08/01 05:23:51;;;;;;;9.77;6.80;;;17.80;99.90;;;;;;5130856;28;20273;-71
2021/08/01 05:26:38;;;;;;;11.07;6.93;;;17.80;99.90;;;;;;5130645;28;20207;-71
2021/08/01 05:29:26;;;;;;;14.70;7.50;;;17.80;99.90;;;;;;5131071;28;20313;-71
2021/08/01 05:32:13;;;;;;;12.43;7.40;;;17.90;99.90;;;;;;5131531;28;20224;-71
2021/08/01 05:35:02;;;;;;;11.90;6.83;;;17.90;99.90;;;;;;5131600;28;20919;-71
2021/08/01 05:37:50;;;;;;;9.90;6.90;;;17.90;99.90;;;;;;5130837;28;20201;-71
2021/08/01 05:40:38;;;;;;;12.40;7.50;;;17.90;99.90;;;;;;5131700;28;20226;-71
2021/08/01 05:43:25;;;;;;;11.00;6.97;;;18.00;99.90;;;;;;5131578;28;20196;-71
2021/08/01 05:46:13;;;;;;;14.33;6.87;;;18.00;99.90;;;;;;5141730;27;20211;-71
2021/08/01 05:49:00;;;;;;;11.03;6.50;;;18.10;99.90;;;;;;5149266;27;20196;-71
2021/08/01 05:51:49;;;;;;;9.97;6.73;;;18.10;99.90;;;;;;5156420;27;20207;-71
2021/08/01 05:54:37;;;;;;;14.70;7.60;;;18.10;99.90;;;;;;5135497;27;20351;-71
2021/08/01 05:57:25;;;;;;;15.17;7.43;;;18.10;99.90;;;;;;5147371;27;20230;-71
2021/08/01 06:00:16;;;;;;;13.33;7.20;;;18.10;99.90;;;;;;5137976;27;20208;-71
2021/08/01 06:03:04;;;;;;;15.03;7.63;;;18.20;99.90;;;;;;5136346;27;20664;-71
2021/08/01 06:05:52;;;;;;;14.07;8.57;;;18.20;99.90;;;;;;5138738;27;20621;-71
2021/08/01 06:08:41;;;;;;;16.07;8.90;;;18.30;99.90;;;;;;5147726;27;20222;-71
2021/08/01 06:11:28;;;;;;;13.03;8.73;;;18.30;99.90;;;;;;5143688;27;20208;-71
2021/08/01 06:14:16;;;;;;;15.47;8.83;;;18.40;99.90;;;;;;5137093;27;20201;-71
2021/08/01 06:17:04;;;;;;;15.10;9.50;;;18.40;99.90;;;;;;5156055;27;20212;-71
2021/08/01 06:19:55;;;;;;;20.27;9.90;;;18.50;99.90;;;;;;5144990;27;20278;-71
2021/08/01 06:22:42;;;;;;;15.03;10.27;;;18.60;99.90;;;;;;5141575;27;20330;-72
2021/08/01 06:25:32;;;;;;;16.30;10.63;;;18.60;99.90;;;;;;5144095;27;20848;-71
2021/08/01 06:28:19;;;;;;;20.67;10.90;;;18.70;99.90;;;;;;5135407;27;20679;-72
2021/08/01 06:31:07;;;;;;;17.20;11.40;;;18.70;99.90;;;;;;5136134;27;20219;-71
2021/08/01 06:33:58;;;;;;;18.83;10.87;;;18.80;99.90;;;;;;5134841;27;20199;-71
2021/08/01 06:36:45;;;;;;;18.87;11.03;;;18.90;99.90;;;;;;5137326;27;20196;-71
2021/08/01 06:39:33;;;;;;;18.23;10.50;;;19.00;99.90;;;;;;5142668;27;20201;-71
2021/08/01 06:42:22;;;;;;;18.00;11.23;;;19.10;99.90;;;;;;5134180;27;20197;-72
2021/08/01 06:45:10;;;;;;;15.67;10.30;;;19.10;99.90;;;;;;5139531;27;20205;-71
2021/08/01 06:47:58;;;;;;;16.87;9.67;;;19.20;99.90;;;;;;5134670;27;20228;-72
2021/08/01 06:50:46;;;;;;;14.93;9.60;;;19.20;99.90;;;;;;5143735;27;20194;-71
2021/08/01 06:53:33;;;;;;;15.47;10.00;;;19.30;99.90;;;;;;5143339;27;20193;-71
2021/08/01 06:56:21;;;;;;;22.97;9.00;;;19.40;99.90;;;;;;5150846;27;20206;-66
2021/08/01 06:59:10;;;;;;;16.70;9.10;;;19.60;99.90;;;;;;5146150;27;20226;-66
2021/08/01 07:01:58;;;;;;;15.27;9.50;;;19.70;99.90;;;;;;5136780;27;20204;-66
2021/08/01 07:04:45;;;;;;;14.60;9.17;;;19.90;99.90;;;;;;5139219;27;20190;-67
2021/08/01 07:07:33;;;;;;;17.33;9.63;;;20.20;99.90;;;;;;5137564;27;20229;-66
2021/08/01 07:10:20;;;;;;;14.53;8.93;;;20.50;99.90;;;;;;5135775;27;20208;-66
2021/08/01 07:13:09;;;;;;;16.30;8.70;;;20.80;99.90;;;;;;5144896;27;20656;-67
2021/08/01 07:16:02;;;;;;;15.47;9.00;;;21.10;99.90;;;;;;5136826;27;20198;-66
2021/08/01 07:18:50;;;;;;;11.60;7.90;;;21.50;99.90;;;;;;5136565;27;20221;-66
2021/08/01 07:21:37;;;;;;;12.97;7.60;;;21.80;99.90;;;;;;5152090;27;20721;-66
2021/08/01 07:24:25;;;;;;;12.30;7.80;;;22.10;99.90;;;;;;5142850;27;20225;-66
2021/08/01 07:27:12;;;;;;;14.70;8.07;;;22.00;99.90;;;;;;5142229;27;20201;-66
2021/08/01 07:30:00;;;;;;;12.30;7.37;;;22.20;99.90;;;;;;5134180;27;20630;-66
2021/08/01 07:32:49;;;;;;;10.80;6.70;;;22.40;99.90;;;;;;5142566;27;20206;-66
2021/08/01 07:35:36;;;;;;;11.73;6.83;;;22.30;99.90;;;;;;5138679;27;20201;-66
2021/08/01 07:38:25;;;;;;;11.53;6.37;;;22.50;99.90;;;;;;5133582;27;20190;-66
2021/08/01 07:41:12;;;;;;;13.27;7.00;;;22.50;99.90;;;;;;5137097;27;20197;-66
2021/08/01 07:44:00;;;;;;;11.50;7.00;;;22.40;99.90;;;;;;5144478;27;20206;-66
2021/08/01 07:46:47;;;;;;;12.53;6.80;;;22.30;99.90;;;;;;5138437;27;20218;-66
2021/08/01 07:49:37;;;;;;;14.60;7.60;;;22.40;99.90;;;;;;5138412;27;20211;-66
2021/08/01 07:52:24;;;;;;;14.33;7.63;;;22.50;99.90;;;;;;5145346;27;20197;-66
2021/08/01 07:55:15;;;;;;;11.43;7.03;;;22.60;99.90;;;;;;5145821;27;20199;-66
2021/08/01 07:58:03;;;;;;;16.87;7.00;;;22.60;99.90;;;;;;5132312;27;20241;-66
2021/08/01 08:00:50;;;;;;;10.23;6.90;;;22.80;99.90;;;;;;5141483;27;20190;-67
2021/08/01 08:03:39;;;;;;;10.90;6.67;;;22.90;99.90;;;;;;5137957;27;20679;-67
2021/08/01 08:06:28;;;;;;;11.70;6.80;;;22.90;99.90;;;;;;5141198;27;20209;-67
2021/08/01 08:09:15;;;;;;;13.97;6.80;;;22.90;99.90;;;;;;5146542;27;20668;-67
2021/08/01 08:12:03;;;;;;;9.83;6.60;;;22.70;99.90;;;;;;5133820;27;20652;-66
2021/08/01 08:14:51;;;;;;;12.23;6.10;;;22.40;99.90;;;;;;5143598;27;20251;-66
2021/08/01 08:17:38;;;;;;;13.17;6.67;;;22.10;99.90;;;;;;5148631;27;20734;-67
2021/08/01 08:20:26;;;;;;;12.47;6.47;;;22.00;99.90;;;;;;5136228;27;20201;-66
2021/08/01 08:23:16;;;;;;;11.37;7.60;;;21.90;99.90;;;;;;5136218;27;20205;-66
2021/08/01 08:26:03;;;;;;;11.93;7.10;;;21.90;99.90;;;;;;5136932;27;20194;-66
2021/08/01 08:28:51;;;;;;;10.43;6.40;;;21.90;99.90;;;;;;5150606;27;20607;-66
2021/08/01 08:31:38;;;;;;;11.97;6.77;;;21.90;99.90;;;;;;5151830;27;20204;-66
2021/08/01 08:34:26;;;;;;;15.73;6.73;;;21.80;99.90;;;;;;5152686;27;20206;-66
2021/08/01 08:37:14;;;;;;;12.13;6.63;;;21.90;99.90;;;;;;5152827;27;20560;-66
2021/08/01 08:40:03;;;;;;;16.43;6.77;;;21.90;99.90;;;;;;5134681;27;20202;-66
2021/08/01 08:42:51;;;;;;;10.50;6.03;;;22.00;99.90;;;;;;5131458;27;20563;-66
2021/08/01 08:45:39;;;;;;;13.80;7.00;;;22.10;99.90;;;;;;5131165;27;20214;-66
2021/08/01 08:48:26;;;;;;;12.93;6.70;;;22.10;99.90;;;;;;5132517;28;20222;-66
2021/08/01 08:51:14;;;;;;;10.73;7.13;;;22.10;99.90;;;;;;5131944;28;20225;-66
2021/08/01 08:54:01;;;;;;;15.57;6.13;;;22.00;99.90;;;;;;5131826;28;20195;-67
2021/08/01 08:56:50;;;;;;;13.10;6.90;;;21.90;99.90;;;;;;5131184;28;20204;-66
2021/08/01 08:59:38;;;;;;;14.83;6.63;;;21.70;99.90;;;;;;5131350;28;20210;-66
2021/08/01 09:02:25;;;;;;;11.80;7.03;;;21.50;99.90;;;;;;5131066;28;20661;-66
2021/08/01 09:05:13;;;;;;;15.73;7.20;;;21.40;99.90;;;;;;5131593;28;20202;-66
2021/08/01 09:08:01;;;;;;;14.20;7.07;;;21.30;99.90;;;;;;5131554;28;20668;-66
2021/08/01 09:10:48;;;;;;;16.50;7.43;;;21.00;99.90;;;;;;5130816;28;20198;-66
2021/08/01 09:13:47;;;;;;;15.60;7.30;;;20.90;99.90;;;;;;5131034;28;20250;-66
2021/08/01 09:16:42;;;;;;;11.80;7.27;;;20.80;99.90;;;;;;5131029;28;20221;-66
2021/08/01 09:19:31;;;;;;;13.77;7.83;;;20.80;99.90;;;;;;5130760;27;20202;-66
2021/08/01 09:22:19;;;;;;;11.47;7.63;;;20.70;99.90;;;;;;5136136;27;20785;-66
2021/08/01 09:25:17;;;;;;;16.57;8.20;;;20.60;99.90;;;;;;5135983;27;20234;-67
2021/08/01 09:28:12;;;;;;;15.27;8.83;;;20.60;99.90;;;;;;5136003;27;20225;-67
2021/08/01 09:31:02;;;;;;;16.27;7.97;;;20.60;99.90;;;;;;5135957;27;20246;-67
2021/08/01 09:33:53;;;;;;;21.53;8.50;;;20.60;99.90;;;;;;5136122;27;20233;-67
2021/08/01 09:36:56;;;;;;;15.17;8.90;;;20.60;99.90;;;;;;5135809;27;20217;-67
2021/08/01 09:39:44;;;;;;;14.73;8.47;;;20.50;99.90;;;;;;5135779;27;20190;-66
2021/08/01 09:42:40;;;;;;;14.60;9.53;;;20.50;99.90;;;;;;5135069;27;20194;-66
2021/08/01 09:45:27;;;;;;;16.90;9.70;;;20.60;99.90;;;;;;5134563;27;20198;-66
2021/08/01 09:48:18;;;;;;;18.67;9.87;;;20.70;99.90;;;;;;5134690;27;20229;-66
2021/08/01 09:51:06;;;;;;;19.50;10.67;;;20.90;99.90;;;;;;5134645;27;20214;-66
2021/08/01 09:53:58;;;;;;;18.13;10.30;;;21.10;99.90;;;;;;5134466;27;20553;-66
2021/08/01 09:56:53;;;;;;;22.97;11.30;;;21.40;99.90;;;;;;5134428;27;20198;-66
2021/08/01 09:59:41;;;;;;;19.70;11.43;;;21.70;99.90;;;;;;5135029;27;20275;-66
2021/08/01 10:02:36;;;;;;;23.93;10.50;;;22.00;99.90;;;;;;5134747;27;20574;-66
2021/08/01 10:05:26;;;;;;;17.77;9.50;;;22.30;99.90;;;;;;5134802;27;20203;-66
2021/08/01 10:08:13;;;;;;;13.03;9.23;;;22.50;99.90;;;;;;5135270;27;20211;-66
2021/08/01 10:11:09;;;;;;;16.83;8.53;;;22.60;99.90;;;;;;5133997;27;20232;-66
2021/08/01 10:13:56;;;;;;;16.83;8.73;;;22.60;99.90;;;;;;5135201;27;20210;-66
2021/08/01 10:16:44;;;;;;;12.43;8.20;;;22.80;99.90;;;;;;5134603;27;20209;-66
2021/08/01 10:19:32;;;;;;;11.30;7.77;;;23.00;99.90;;;;;;5132837;27;20186;-66
2021/08/01 10:22:21;;;;;;;11.70;7.57;;;23.20;99.90;;;;;;5133558;27;20207;-66
2021/08/01 10:25:11;;;;;;;15.20;7.50;;;23.30;99.90;;;;;;5134223;27;20198;-66
2021/08/01 10:27:59;;;;;;;10.80;7.63;;;23.60;99.90;;;;;;5134142;27;20243;-66
2021/08/01 10:30:46;;;;;;;10.70;7.07;;;23.50;99.90;;;;;;5133435;27;20205;-66
2021/08/01 10:33:39;;;;;;;11.03;6.97;;;23.40;99.90;;;;;;5133960;27;20677;-66
2021/08/01 10:36:27;;;;;;;12.97;7.27;;;23.30;99.90;;;;;;5133710;27;20207;-66
2021/08/01 10:39:16;;;;;;;10.20;7.30;;;23.00;99.90;;;;;;5133422;27;20234;-66
2021/08/01 10:42:07;;;;;;;11.87;6.97;;;23.00;99.90;;;;;;5133635;27;20213;-66
2021/08/01 10:44:55;;;;;;;11.87;7.27;;;22.90;99.90;;;;;;5133490;27;20195;-66
2021/08/01 10:47:44;;;;;;;12.43;6.87;;;22.70;99.90;;;;;;5134176;27;20210;-66
2021/08/01 10:50:32;;;;;;;9.27;6.20;;;22.60;99.90;;;;;;5134102;27;20201;-66
2021/08/01 10:53:26;;;;;;;10.83;5.73;;;22.50;99.90;;;;;;5133746;27;20202;-66
2021/08/01 10:56:34;;;;;;;9.07;5.73;;;22.40;99.90;;;;;;5134123;27;20209;-66
2021/08/01 10:59:56;;;;;;;9.63;5.43;;;22.30;99.90;;;;;;5133593;27;20234;-66
2021/08/01 11:02:44;;;;;;;14.10;5.37;;;22.00;99.90;;;;;;5133704;27;20217;-66
2021/08/01 11:05:38;;;;;;;6.80;4.73;;;21.80;99.90;;;;;;5133594;27;20192;-66
2021/08/01 11:08:26;;;;;;;8.10;4.77;;;21.50;99.90;;;;;;5133454;27;20244;-66
2021/08/01 11:11:15;;;;;;;8.93;4.50;;;21.40;99.90;;;;;;5133286;27;20202;-66
2021/08/01 11:14:04;;;;;;;8.47;4.00;;;21.50;99.90;;;;;;5132874;27;20199;-66
2021/08/01 11:16:52;;;;;;;7.17;4.47;;;21.60;99.90;;;;;;5133386;27;20209;-66
2021/08/01 11:19:39;;;;;;;7.63;4.07;;;21.80;99.90;;;;;;5133698;27;20271;-66
2021/08/01 11:22:51;;;;;;;6.93;4.27;;;21.90;99.90;;;;;;5133947;27;20546;-66
2021/08/01 11:25:40;;;;;;;6.93;4.20;;;21.90;99.90;;;;;;5133776;27;20677;-66
2021/08/01 11:28:29;;;;;;;4.93;3.70;;;21.70;99.90;;;;;;5133641;27;20633;-66
2021/08/01 11:31:22;;;;;;;7.63;3.67;;;21.70;99.90;;;;;;5133733;27;20217;-66
2021/08/01 11:34:23;;;;;;;4.87;2.70;;;21.80;99.90;;;;;;5133823;27;20692;-66
2021/08/01 11:37:28;;;;;;;4.87;3.07;;;21.90;99.90;;;;;;5133603;27;20201;-66
2021/08/01 11:40:15;;;;;;;4.40;3.27;;;22.00;99.90;;;;;;5133670;27;20229;-66
2021/08/01 11:43:06;;;;;;;4.53;2.60;;;22.20;99.90;;;;;;5132964;27;20637;-66
2021/08/01 11:46:04;;;;;;;3.60;2.40;;;22.30;99.90;;;;;;5150502;27;20222;-66
2021/08/01 11:48:58;;;;;;;31.20;15.57;;;22.20;99.90;;;;;;5153956;27;20232;-66
2021/08/01 11:51:45;;;;;;;14.87;8.97;;;22.10;99.90;;;;;;5152920;27;20201;-66
2021/08/01 11:54:33;;;;;;;8.53;5.00;;;22.00;99.90;;;;;;5153392;27;20202;-66
2021/08/01 11:57:21;;;;;;;4.27;3.40;;;21.90;99.90;;;;;;5153269;27;20234;-66
2021/08/01 12:00:10;;;;;;;5.93;2.80;;;21.80;99.90;;;;;;5152496;27;20323;-66
2021/08/01 12:02:57;;;;;;;4.60;2.90;;;21.60;99.90;;;;;;5152422;27;20200;-66
2021/08/01 12:05:48;;;;;;;4.87;2.87;;;21.60;99.90;;;;;;5153105;27;20198;-66
2021/08/01 12:08:36;;;;;;;6.03;3.20;;;21.70;99.90;;;;;;5152322;27;20190;-66
2021/08/01 12:11:23;;;;;;;3.67;2.80;;;21.80;99.90;;;;;;5152304;27;20559;-66
2021/08/01 12:14:11;;;;;;;6.60;3.00;;;21.90;99.90;;;;;;5152489;27;20208;-66
2021/08/01 12:17:00;;;;;;;4.30;2.80;;;22.10;99.90;;;;;;5152435;27;20309;-66
2021/08/01 12:19:49;;;;;;;7.03;3.40;;;22.10;99.90;;;;;;5151884;27;20201;-66
2021/08/01 12:22:38;;;;;;;10.37;3.60;;;22.00;99.90;;;;;;5144993;27;20210;-66
2021/08/01 12:25:26;;;;;;;8.63;3.80;;;21.90;99.90;;;;;;5152992;27;20201;-66
2021/08/01 12:28:13;;;;;;;5.10;3.47;;;21.80;99.90;;;;;;5151938;27;20280;-66
2021/08/01 12:31:01;;;;;;;4.00;3.03;;;21.70;99.90;;;;;;5152406;27;20678;-66
2021/08/01 12:33:48;;;;;;;14.70;11.03;;;21.70;99.90;;;;;;5152012;27;20205;-66
2021/08/01 12:36:36;;;;;;;6.87;3.40;;;21.60;99.90;;;;;;5152715;27;20197;-66
2021/08/01 12:39:25;;;;;;;9.80;3.80;;;21.70;99.90;;;;;;5151816;27;20198;-66
2021/08/01 12:42:12;;;;;;;5.27;3.63;;;21.90;99.90;;;;;;5151993;27;20276;-66
2021/08/01 12:45:01;;;;;;;6.57;3.83;;;22.00;99.90;;;;;;5143037;27;20538;-66
2021/08/01 12:47:48;;;;;;;5.97;3.47;;;22.00;99.90;;;;;;5131986;28;20206;-66
2021/08/01 12:50:36;;;;;;;9.47;3.60;;;21.90;99.90;;;;;;5131829;28;20223;-66
2021/08/01 12:53:25;;;;;;;6.77;3.97;;;21.70;99.90;;;;;;5131369;28;20205;-67
2021/08/01 12:56:15;;;;;;;9.13;3.83;;;21.70;99.90;;;;;;5136194;27;20536;-66
2021/08/01 12:59:12;;;;;;;5.97;3.73;;;21.90;99.90;;;;;;5135278;27;20557;-66
2021/08/01 13:02:00;;;;;;;9.97;6.50;;;22.20;99.90;;;;;;5135994;27;20653;-66
2021/08/01 13:04:47;;;;;;;6.77;4.23;;;22.40;99.90;;;;;;5135328;27;20242;-66
2021/08/01 13:07:45;;;;;;;5.83;3.63;;;22.60;99.90;;;;;;5135846;27;20659;-66
2021/08/01 13:10:46;;;;;;;5.53;2.87;;;23.20;99.90;;;;;;5135005;27;20214;-66
2021/08/01 13:13:35;;;;;;;3.33;2.53;;;23.50;99.90;;;;;;5135128;27;20205;-66
2021/08/01 13:16:23;;;;;;;4.40;2.30;;;23.70;99.90;;;;;;5135823;27;20221;-66
2021/08/01 13:19:11;;;;;;;2.80;2.53;;;23.90;99.90;;;;;;5133830;27;20199;-66
2021/08/01 13:22:09;;;;;;;4.07;2.57;;;24.30;99.90;;;;;;5114615;28;20207;-66
2021/08/01 13:24:58;;;;;;;6.18;2.85;;;24.70;99.90;;;;;;5115356;28;20225;-66
2021/08/01 13:27:51;;;;;;;3.85;2.50;;;25.00;99.90;;;;;;5115095;28;20207;-66
2021/08/01 13:30:40;;;;;;;4.00;2.20;;;25.20;99.90;;;;;;5114788;28;20215;-66
2021/08/01 13:33:28;;;;;;;3.35;2.20;;;25.00;99.90;;;;;;5114797;28;20199;-66
2021/08/01 13:36:15;;;;;;;4.32;2.25;;;25.10;99.90;;;;;;5114858;28;20227;-66
2021/08/01 13:39:03;;;;;;;5.05;2.13;;;25.00;99.90;;;;;;5114793;28;20225;-66
2021/08/01 13:42:08;;;;;;;2.38;2.08;;;25.00;99.90;;;;;;5114813;28;20198;-66
2021/08/01 13:45:01;;;;;;;5.15;2.40;;;24.90;99.90;;;;;;5112750;28;20643;-66
2021/08/01 13:47:53;;;;;;;5.80;2.10;;;25.00;99.90;;;;;;5093931;28;20208;-66
2021/08/01 13:50:41;;;;;;;3.08;2.17;;;24.90;99.90;;;;;;5093425;28;20223;-66
2021/08/01 13:53:28;;;;;;;3.45;2.20;;;24.90;99.90;;;;;;5093787;28;20200;-66
2021/08/01 13:56:16;;;;;;;3.58;2.42;;;24.90;99.90;;;;;;5094844;28;20663;-66
2021/08/01 13:59:03;;;;;;;5.85;2.55;;;24.90;99.90;;;;;;5128959;27;20584;-66
2021/08/01 14:01:51;;;;;;;2.65;2.10;;;25.00;99.90;;;;;;5134991;27;20276;-66
2021/08/01 14:04:40;;;;;;;3.53;2.40;;;25.30;99.90;;;;;;5133929;27;20207;-66
2021/08/01 14:07:27;;;;;;;4.30;2.03;;;25.20;99.90;;;;;;5134239;27;20657;-66
2021/08/01 14:10:15;;;;;;;3.60;2.55;;;25.00;99.90;;;;;;5134096;27;20292;-66
2021/08/01 14:13:02;;;;;;;3.53;2.55;;;25.00;99.90;;;;;;5134185;27;20290;-66
2021/08/01 14:15:50;;;;;;;4.47;2.65;;;24.90;99.90;;;;;;5134567;27;20198;-66
2021/08/01 14:18:37;;;;;;;3.80;2.50;;;25.10;99.90;;;;;;5134477;27;20275;-67
2021/08/01 14:21:26;;;;;;;5.43;2.67;;;24.90;99.90;;;;;;5154053;27;20201;-66
2021/08/01 14:24:14;;;;;;;3.40;2.58;;;24.60;99.90;;;;;;5155166;27;20216;-66
2021/08/01 14:27:02;;;;;;;4.53;2.33;;;24.10;99.90;;;;;;5154987;27;20239;-66
2021/08/01 14:29:49;;;;;;;5.18;2.50;;;23.90;99.90;;;;;;5154539;27;20224;-66